createdAt,value
2018-04-16T00:00:02.533Z,70.38
2018-04-16T00:02:36.087Z,70.26
2018-04-16T00:05:09.616Z,70.21
2018-04-16T00:07:43.162Z,70.29
2018-04-16T00:10:16.988Z,70.12
2018-04-16T00:12:50.513Z,70.27
2018-04-16T00:15:24.217Z,70.34
2018-04-16T00:17:57.972Z,70.17
2018-04-16T00:20:31.729Z,70.31
2018-04-16T00:23:05.376Z,70.55
2018-04-16T00:25:39.133Z,70.73
2018-04-16T00:28:12.876Z,71.58
2018-04-16T00:30:46.427Z,72.15
2018-04-16T00:33:25.632Z,72.17
2018-04-16T00:36:04.808Z,72.33
2018-04-16T00:38:44.043Z,72.65
2018-04-16T00:41:23.435Z,72.37
2018-04-16T00:44:02.904Z,72.19
2018-04-16T00:46:42.245Z,70.63
2018-04-16T00:49:21.515Z,69.62
2018-04-16T00:52:00.849Z,69.54
2018-04-16T00:54:40.152Z,69.78
2018-04-16T00:57:19.278Z,70.17
2018-04-16T00:59:58.690Z,69.89
2018-04-16T01:05:38.252Z,70.16
2018-04-16T01:08:17.716Z,70.45
2018-04-16T01:10:57.239Z,70.40
2018-04-16T01:16:41.558Z,70.91
2018-04-16T01:19:20.868Z,71.23
2018-04-16T01:22:00.336Z,71.16
2018-04-16T01:24:39.724Z,71.17
2018-04-16T01:27:18.852Z,71.60
2018-04-16T01:29:58.334Z,71.83
2018-04-16T01:32:37.512Z,72.19
2018-04-16T01:35:16.764Z,72.32
2018-04-16T01:37:56.076Z,72.52
2018-04-16T01:40:35.493Z,72.21
2018-04-16T01:43:14.716Z,72.32
2018-04-16T01:45:57.013Z,72.79
2018-04-16T01:48:36.177Z,72.95
2018-04-16T01:51:15.616Z,73.13
2018-04-16T01:53:54.729Z,73.13
2018-04-16T01:56:33.953Z,73.06
2018-04-16T01:59:13.258Z,73.30
2018-04-16T02:01:52.631Z,73.82
2018-04-16T02:04:32.018Z,74.22
2018-04-16T02:07:11.385Z,74.46
2018-04-16T02:09:50.725Z,74.33
2018-04-16T02:12:30.287Z,74.79
2018-04-16T02:15:09.843Z,74.97
2018-04-16T02:17:49.437Z,74.94
2018-04-16T02:20:28.996Z,75.32
2018-04-16T02:26:08.220Z,75.78
2018-04-16T02:31:52.640Z,76.34
2018-04-16T02:34:31.840Z,76.60
2018-04-16T02:37:11.091Z,76.92
2018-04-16T02:39:50.452Z,77.46
2018-04-16T02:45:31.885Z,77.99
2018-04-16T02:48:11.172Z,78.15
2018-04-16T02:50:50.318Z,78.58
2018-04-16T02:53:29.562Z,78.87
2018-04-16T02:56:08.897Z,79.03
2018-04-16T02:58:48.312Z,79.18
2018-04-16T03:01:27.551Z,79.53
2018-04-16T03:04:06.798Z,80.00
2018-04-16T03:06:46.047Z,80.67
2018-04-16T03:09:25.399Z,80.83
2018-04-16T03:12:04.895Z,80.90
2018-04-16T03:14:44.213Z,81.34
2018-04-16T03:17:23.574Z,81.34
2018-04-16T03:20:02.931Z,81.25
2018-04-16T03:22:42.323Z,81.09
2018-04-16T03:25:21.593Z,80.68
2018-04-16T03:28:01.052Z,80.71
2018-04-16T03:30:40.398Z,80.58
2018-04-16T03:33:19.832Z,80.64
2018-04-16T03:35:59.346Z,80.75
2018-04-16T03:38:38.659Z,80.65
2018-04-16T03:41:17.824Z,80.81
2018-04-16T03:43:57.085Z,80.93
2018-04-16T03:46:36.277Z,81.02
2018-04-16T03:52:15.719Z,81.02
2018-04-16T03:54:55.008Z,81.34
2018-04-16T03:57:28.720Z,81.41
2018-04-16T04:00:02.322Z,80.91
2018-04-16T04:02:35.933Z,80.87
2018-04-16T04:05:09.616Z,81.01
2018-04-16T04:07:43.233Z,80.99
2018-04-16T04:10:16.923Z,80.84
2018-04-16T04:12:50.680Z,80.71
2018-04-16T04:15:24.240Z,80.59
2018-04-16T04:17:57.813Z,80.11
2018-04-16T04:20:31.506Z,80.15
2018-04-16T04:23:16.916Z,80.00
2018-04-16T04:26:02.541Z,79.39
2018-04-16T04:28:48.344Z,79.01
2018-04-16T04:31:21.980Z,78.97
2018-04-16T04:33:55.781Z,78.81
2018-04-16T04:36:29.550Z,78.94
2018-04-16T04:39:03.069Z,78.75
2018-04-16T04:41:36.695Z,78.61
2018-04-16T04:44:10.255Z,78.83
2018-04-16T04:47:02.897Z,78.43
2018-04-16T04:49:36.600Z,78.20
2018-04-16T04:52:10.339Z,78.15
2018-04-16T04:54:44.202Z,77.95
2018-04-16T04:57:17.842Z,77.80
2018-04-16T04:59:51.652Z,77.70
2018-04-16T05:02:25.296Z,77.79
2018-04-16T05:04:58.869Z,77.70
2018-04-16T05:07:32.430Z,78.11
2018-04-16T05:10:06.107Z,78.34
2018-04-16T05:12:39.708Z,78.54
2018-04-16T05:15:13.447Z,78.89
2018-04-16T05:17:47.097Z,78.60
2018-04-16T05:20:20.740Z,78.42
2018-04-16T05:22:54.427Z,78.92
2018-04-16T05:25:27.946Z,78.20
2018-04-16T05:28:01.679Z,77.48
2018-04-16T05:30:35.589Z,76.79
2018-04-16T05:33:09.186Z,77.03
2018-04-16T05:35:42.928Z,76.32
2018-04-16T05:38:16.688Z,76.15
2018-04-16T05:40:50.319Z,75.57
2018-04-16T05:43:23.954Z,75.33
2018-04-16T05:45:57.496Z,74.82
2018-04-16T05:48:31.491Z,74.00
2018-04-16T05:51:05.106Z,73.06
2018-04-16T05:53:38.743Z,72.29
2018-04-16T05:56:12.322Z,72.10
2018-04-16T05:58:46.003Z,72.87
2018-04-16T06:01:19.676Z,72.69
2018-04-16T06:03:53.271Z,73.31
2018-04-16T06:06:27.093Z,73.27
2018-04-16T06:09:00.862Z,73.08
2018-04-16T06:11:34.511Z,72.65
2018-04-16T06:14:08.362Z,72.36
2018-04-16T06:16:41.994Z,72.16
2018-04-16T06:19:15.548Z,72.25
2018-04-16T06:21:49.193Z,71.98
2018-04-16T06:24:22.726Z,70.76
2018-04-16T06:26:56.572Z,71.29
2018-04-16T06:29:30.120Z,70.89
2018-04-16T06:32:03.811Z,71.09
2018-04-16T06:34:37.555Z,67.69
2018-04-16T06:37:11.328Z,65.09
2018-04-16T06:39:45.093Z,60.71
2018-04-16T06:42:18.616Z,56.93
2018-04-16T06:44:52.212Z,57.02
2018-04-16T06:47:25.782Z,57.44
2018-04-16T06:49:59.616Z,57.62
2018-04-16T06:52:33.272Z,58.92
2018-04-16T06:55:07.293Z,60.88
2018-04-16T06:57:40.878Z,63.38
2018-04-16T07:00:14.589Z,62.56
2018-04-16T07:02:48.291Z,64.51
2018-04-16T07:05:21.956Z,64.56
2018-04-16T07:07:55.656Z,66.09
2018-04-16T07:10:29.457Z,65.34
2018-04-16T07:13:03.220Z,64.86
2018-04-16T07:15:36.762Z,65.82
2018-04-16T07:18:10.551Z,66.23
2018-04-16T07:20:44.303Z,67.00
2018-04-16T07:23:17.920Z,66.58
2018-04-16T07:25:51.516Z,66.47
2018-04-16T07:28:25.259Z,66.10
2018-04-16T07:30:59.067Z,66.47
2018-04-16T07:33:32.727Z,65.32
2018-04-16T07:36:06.499Z,64.18
2018-04-16T07:38:40.052Z,60.38
2018-04-16T07:41:13.576Z,60.89
2018-04-16T07:43:47.167Z,58.31
2018-04-16T07:46:20.896Z,55.31
2018-04-16T07:48:54.553Z,51.12
2018-04-16T07:51:28.113Z,47.28
2018-04-16T07:54:01.861Z,45.52
2018-04-16T07:56:35.470Z,46.02
2018-04-16T07:59:09.160Z,50.07
2018-04-16T08:01:42.913Z,50.67
2018-04-16T08:04:16.565Z,52.22
2018-04-16T08:06:50.116Z,53.11
2018-04-16T08:09:23.653Z,53.26
2018-04-16T08:11:57.198Z,54.50
2018-04-16T08:14:30.851Z,54.43
2018-04-16T08:17:04.614Z,55.71
2018-04-16T08:19:38.177Z,53.77
2018-04-16T08:22:11.993Z,52.54
2018-04-16T08:24:45.757Z,51.97
2018-04-16T08:27:19.352Z,49.89
2018-04-16T08:29:53.037Z,53.34
2018-04-16T08:32:26.704Z,51.21
2018-04-16T08:35:00.465Z,52.22
2018-04-16T08:37:34.127Z,52.51
2018-04-16T08:40:07.700Z,53.30
2018-04-16T08:42:41.419Z,52.43
2018-04-16T08:45:15.082Z,52.83
2018-04-16T08:47:48.745Z,54.23
2018-04-16T08:50:22.534Z,54.68
2018-04-16T08:52:56.072Z,54.89
2018-04-16T08:55:29.961Z,55.12
2018-04-16T08:58:03.473Z,53.59
2018-04-16T09:00:37.159Z,53.33
2018-04-16T09:03:10.898Z,54.44
2018-04-16T09:05:44.519Z,55.81
2018-04-16T09:08:18.120Z,54.53
2018-04-16T09:10:51.999Z,52.92
2018-04-16T09:13:25.661Z,53.31
2018-04-16T09:15:59.249Z,49.23
2018-04-16T09:18:32.912Z,47.43
2018-04-16T09:21:06.517Z,44.72
2018-04-16T09:23:40.334Z,43.70
2018-04-16T09:26:13.976Z,41.53
2018-04-16T09:28:47.584Z,41.40
2018-04-16T09:31:21.408Z,43.18
2018-04-16T09:33:55.184Z,39.43
2018-04-16T09:36:28.753Z,42.32
2018-04-16T09:39:02.385Z,44.96
2018-04-16T09:41:36.000Z,47.54
2018-04-16T09:44:09.557Z,48.31
2018-04-16T09:46:43.207Z,49.38
2018-04-16T09:49:16.880Z,49.62
2018-04-16T09:51:50.588Z,49.83
2018-04-16T09:54:24.168Z,48.77
2018-04-16T09:56:57.716Z,51.26
2018-04-16T09:59:31.244Z,51.48
2018-04-16T10:02:10.500Z,49.54
2018-04-16T10:04:44.152Z,49.70
2018-04-16T10:07:17.724Z,48.25
2018-04-16T10:09:51.384Z,48.27
2018-04-16T10:12:25.026Z,47.41
2018-04-16T10:14:58.840Z,46.77
2018-04-16T10:17:32.539Z,46.39
2018-04-16T10:20:06.079Z,44.92
2018-04-16T10:22:39.778Z,46.98
2018-04-16T10:25:13.553Z,49.03
2018-04-16T10:27:47.089Z,48.92
2018-04-16T10:30:20.811Z,48.44
2018-04-16T10:32:54.341Z,47.91
2018-04-16T10:35:28.059Z,43.45
2018-04-16T10:38:01.849Z,44.69
2018-04-16T10:40:35.427Z,44.73
2018-04-16T10:43:09.189Z,44.23
2018-04-16T10:45:42.872Z,46.97
2018-04-16T10:48:16.540Z,45.44
2018-04-16T10:50:50.257Z,46.49
2018-04-16T10:53:24.063Z,47.44
2018-04-16T10:55:57.754Z,47.73
2018-04-16T10:58:31.304Z,47.92
2018-04-16T11:01:04.878Z,47.93
2018-04-16T11:03:38.711Z,47.38
2018-04-16T11:06:12.513Z,46.35
2018-04-16T11:08:46.029Z,48.94
2018-04-16T11:11:19.592Z,51.46
2018-04-16T11:13:53.222Z,50.25
2018-04-16T11:16:26.885Z,49.17
2018-04-16T11:19:00.398Z,47.10
2018-04-16T11:21:34.149Z,45.20
2018-04-16T11:24:08.193Z,47.72
2018-04-16T11:26:41.726Z,48.79
2018-04-16T11:29:15.380Z,47.43
2018-04-16T11:31:49.085Z,46.66
2018-04-16T11:34:22.714Z,45.36
2018-04-16T11:36:56.457Z,45.50
2018-04-16T11:39:30.117Z,43.69
2018-04-16T11:42:03.905Z,44.14
2018-04-16T11:44:37.645Z,44.51
2018-04-16T11:50:25.414Z,44.87
2018-04-16T11:52:59.188Z,45.52
2018-04-16T11:55:32.753Z,45.12
2018-04-16T11:58:06.397Z,46.10
2018-04-16T12:00:39.977Z,44.56
2018-04-16T12:03:13.666Z,45.51
2018-04-16T12:05:47.610Z,45.29
2018-04-16T12:08:21.135Z,44.75
2018-04-16T12:10:54.786Z,44.39
2018-04-16T12:13:28.377Z,44.10
2018-04-16T12:16:02.074Z,43.93
2018-04-16T12:18:35.829Z,42.94
2018-04-16T12:21:09.393Z,43.47
2018-04-16T12:23:43.024Z,44.47
2018-04-16T12:26:16.680Z,45.88
2018-04-16T12:28:50.340Z,45.05
2018-04-16T12:31:23.917Z,43.41
2018-04-16T12:33:57.464Z,44.83
2018-04-16T12:36:31.173Z,44.56
2018-04-16T12:39:05.452Z,43.75
2018-04-16T12:41:39.010Z,41.90
2018-04-16T12:44:12.755Z,40.75
2018-04-16T12:46:46.563Z,42.17
2018-04-16T12:49:20.266Z,41.94
2018-04-16T12:51:53.952Z,40.03
2018-04-16T12:54:27.667Z,40.05
2018-04-16T12:57:01.399Z,41.58
2018-04-16T12:59:35.133Z,41.96
2018-04-16T13:02:08.840Z,42.58
2018-04-16T13:04:42.437Z,43.53
2018-04-16T13:07:16.268Z,44.41
2018-04-16T13:09:50.032Z,43.54
2018-04-16T13:12:23.734Z,42.59
2018-04-16T13:14:57.588Z,41.15
2018-04-16T13:17:31.186Z,40.85
2018-04-16T13:20:04.992Z,40.79
2018-04-16T13:22:38.660Z,38.60
2018-04-16T13:25:12.386Z,40.99
2018-04-16T13:27:45.982Z,41.70
2018-04-16T13:30:19.579Z,41.80
2018-04-16T13:32:53.223Z,42.53
2018-04-16T13:35:26.832Z,42.51
2018-04-16T13:38:00.498Z,42.28
2018-04-16T13:40:34.202Z,42.42
2018-04-16T13:43:07.916Z,43.57
2018-04-16T13:45:41.586Z,44.10
2018-04-16T13:48:15.250Z,44.09
2018-04-16T13:50:48.955Z,44.49
2018-04-16T13:53:22.680Z,46.34
2018-04-16T13:55:56.365Z,45.70
2018-04-16T13:58:30.126Z,44.73
2018-04-16T14:01:03.834Z,46.16
2018-04-16T14:03:37.713Z,45.90
2018-04-16T14:06:11.470Z,45.45
2018-04-16T14:08:45.241Z,44.66
2018-04-16T14:11:18.781Z,44.67
2018-04-16T14:13:52.328Z,44.93
2018-04-16T14:16:26.009Z,44.76
2018-04-16T14:18:59.715Z,45.15
2018-04-16T14:21:33.424Z,43.65
2018-04-16T14:24:07.157Z,42.13
2018-04-16T14:26:40.862Z,41.09
2018-04-16T14:29:14.638Z,40.64
2018-04-16T14:31:48.300Z,38.31
2018-04-16T14:34:22.105Z,36.24
2018-04-16T14:36:55.730Z,34.29
2018-04-16T14:39:29.587Z,31.90
2018-04-16T14:42:03.364Z,32.22
2018-04-16T14:44:36.942Z,32.60
2018-04-16T14:47:10.509Z,33.06
2018-04-16T14:49:44.113Z,35.42
2018-04-16T14:52:17.738Z,36.31
2018-04-16T14:54:51.481Z,34.73
2018-04-16T14:57:25.167Z,34.91
2018-04-16T14:59:58.846Z,35.36
2018-04-16T15:02:32.417Z,35.32
2018-04-16T15:05:06.132Z,32.44
2018-04-16T15:07:39.720Z,33.35
2018-04-16T15:10:13.471Z,34.75
2018-04-16T15:12:47.135Z,34.34
2018-04-16T15:15:21.663Z,35.05
2018-04-16T15:17:55.441Z,37.08
2018-04-16T15:20:29.105Z,38.03
2018-04-16T15:23:02.660Z,38.61
2018-04-16T15:25:36.440Z,39.34
2018-04-16T15:28:10.101Z,38.72
2018-04-16T15:30:44.161Z,38.10
2018-04-16T15:33:17.716Z,37.44
2018-04-16T15:35:51.395Z,36.39
2018-04-16T15:38:24.907Z,38.02
2018-04-16T15:40:58.439Z,39.80
2018-04-16T15:43:32.161Z,39.21
2018-04-16T15:46:05.764Z,39.16
2018-04-16T15:48:39.316Z,37.93
2018-04-16T15:51:12.931Z,35.80
2018-04-16T15:53:46.581Z,34.95
2018-04-16T15:56:20.349Z,35.18
2018-04-16T15:58:53.956Z,35.81
2018-04-16T16:01:27.823Z,36.76
2018-04-16T16:04:01.410Z,37.65
2018-04-16T16:06:35.084Z,38.54
2018-04-16T16:09:08.692Z,38.97
2018-04-16T16:11:42.445Z,39.65
2018-04-16T16:14:16.140Z,39.44
2018-04-16T16:16:49.855Z,39.66
2018-04-16T16:19:23.596Z,40.57
2018-04-16T16:21:57.376Z,41.20
2018-04-16T16:24:30.950Z,41.39
2018-04-16T16:27:04.492Z,41.50
2018-04-16T16:29:38.161Z,41.67
2018-04-16T16:32:11.734Z,41.46
2018-04-16T16:34:45.557Z,42.93
2018-04-16T16:37:19.201Z,42.60
2018-04-16T16:39:52.756Z,41.40
2018-04-16T16:42:26.384Z,41.21
2018-04-16T16:44:59.985Z,41.85
2018-04-16T16:47:33.561Z,42.52
2018-04-16T16:50:07.336Z,42.33
2018-04-16T16:52:41.179Z,42.50
2018-04-16T16:55:14.943Z,42.22
2018-04-16T16:57:48.695Z,42.70
2018-04-16T17:00:22.256Z,42.20
2018-04-16T17:02:55.815Z,42.53
2018-04-16T17:05:29.351Z,42.54
2018-04-16T17:08:02.949Z,43.13
2018-04-16T17:10:36.688Z,43.62
2018-04-16T17:13:10.228Z,43.41
2018-04-16T17:15:43.860Z,43.63
2018-04-16T17:18:18.396Z,44.10
2018-04-16T17:20:54.985Z,44.68
2018-04-16T17:23:28.661Z,44.70
2018-04-16T17:26:02.306Z,45.29
2018-04-16T17:28:35.955Z,46.03
2018-04-16T17:31:09.684Z,46.81
2018-04-16T17:33:43.211Z,47.05
2018-04-16T17:36:16.817Z,47.21
2018-04-16T17:38:50.552Z,47.77
2018-04-16T17:41:24.308Z,47.97
2018-04-16T17:43:57.915Z,48.25
2018-04-16T17:46:31.562Z,49.82
2018-04-16T17:49:05.285Z,51.40
2018-04-16T17:51:39.012Z,51.25
2018-04-16T17:54:12.764Z,51.13
2018-04-16T17:56:46.523Z,51.39
2018-04-16T17:59:20.101Z,52.86
2018-04-16T18:01:54.167Z,50.88
2018-04-16T18:04:27.887Z,51.02
2018-04-16T18:07:01.415Z,50.98
2018-04-16T18:09:35.036Z,50.87
2018-04-16T18:12:08.640Z,50.53
2018-04-16T18:14:42.263Z,50.40
2018-04-16T18:17:15.999Z,51.10
2018-04-16T18:19:49.790Z,51.30
2018-04-16T18:22:23.597Z,51.58
2018-04-16T18:24:57.385Z,51.67
2018-04-16T18:27:30.886Z,52.05
2018-04-16T18:30:04.540Z,53.17
2018-04-16T18:32:38.024Z,53.63
2018-04-16T18:35:11.712Z,54.43
2018-04-16T18:37:45.280Z,56.07
2018-04-16T18:40:18.898Z,54.53
2018-04-16T18:42:52.428Z,55.63
2018-04-16T18:45:25.993Z,54.46
2018-04-16T18:47:59.678Z,54.65
2018-04-16T18:50:33.287Z,54.75
2018-04-16T18:53:06.983Z,55.28
2018-04-16T18:55:40.518Z,55.59
2018-04-16T18:58:14.248Z,55.91
2018-04-16T19:00:47.922Z,56.18
2018-04-16T19:03:21.476Z,57.17
2018-04-16T19:06:12.429Z,57.23
2018-04-16T19:08:46.105Z,57.62
2018-04-16T19:11:19.772Z,57.81
2018-04-16T19:13:53.352Z,58.12
2018-04-16T19:16:27.037Z,58.32
2018-04-16T19:19:00.898Z,57.98
2018-04-16T19:21:39.996Z,58.85
2018-04-16T19:24:13.568Z,59.91
2018-04-16T19:26:52.871Z,60.08
2018-04-16T19:29:26.569Z,60.48
2018-04-16T19:32:00.277Z,60.33
2018-04-16T19:34:39.704Z,60.27
2018-04-16T19:37:13.396Z,59.90
2018-04-16T19:39:46.944Z,60.08
2018-04-16T19:42:26.048Z,60.89
2018-04-16T19:44:59.857Z,61.56
2018-04-16T19:47:33.499Z,61.16
2018-04-16T19:50:07.077Z,62.02
2018-04-16T19:52:40.603Z,62.77
2018-04-16T19:55:14.228Z,64.09
2018-04-16T19:57:53.374Z,64.65
2018-04-16T20:00:27.153Z,64.99
2018-04-16T20:06:03.720Z,64.77
2018-04-16T20:08:37.402Z,64.97
2018-04-16T20:11:10.952Z,65.41
2018-04-16T20:13:44.637Z,65.28
2018-04-16T20:16:18.206Z,65.41
2018-04-16T20:18:51.844Z,66.09
2018-04-16T20:21:25.558Z,66.13
2018-04-16T20:23:59.257Z,66.00
2018-04-16T20:26:32.762Z,66.31
2018-04-16T20:29:06.437Z,66.68
2018-04-16T20:31:40.245Z,66.41
2018-04-16T20:34:13.755Z,66.58
2018-04-16T20:36:47.378Z,66.34
2018-04-16T20:39:21.048Z,66.49
2018-04-16T20:41:54.748Z,66.57
2018-04-16T20:44:28.304Z,66.76
2018-04-16T20:47:01.880Z,66.53
2018-04-16T20:49:35.422Z,66.44
2018-04-16T20:52:09.134Z,66.19
2018-04-16T20:54:42.765Z,66.90
2018-04-16T20:57:16.360Z,66.31
2018-04-16T20:59:49.953Z,65.97
2018-04-16T21:02:23.459Z,65.77
2018-04-16T21:04:57.251Z,65.70
2018-04-16T21:10:10.119Z,66.09
2018-04-16T21:12:43.986Z,65.88
2018-04-16T21:15:17.616Z,66.62
2018-04-16T21:17:51.251Z,67.06
2018-04-16T21:20:24.863Z,67.82
2018-04-16T21:22:58.500Z,67.70
2018-04-16T21:25:32.363Z,67.75
2018-04-16T21:28:06.148Z,68.11
2018-04-16T21:30:39.862Z,68.36
2018-04-16T21:33:13.495Z,68.71
2018-04-16T21:35:47.311Z,68.73
2018-04-16T21:38:20.979Z,68.93
2018-04-16T21:40:54.693Z,68.94
2018-04-16T21:43:28.584Z,68.89
2018-04-16T21:46:02.423Z,69.17
2018-04-16T21:48:36.017Z,68.56
2018-04-16T21:51:09.903Z,68.73
2018-04-16T21:53:43.711Z,68.05
2018-04-16T21:56:17.565Z,68.66
2018-04-16T21:58:51.208Z,68.18
2018-04-16T22:01:25.022Z,68.71
2018-04-16T22:03:58.860Z,68.43
2018-04-16T22:06:32.584Z,68.15
2018-04-16T22:09:06.204Z,67.99
2018-04-16T22:11:39.963Z,67.90
2018-04-16T22:14:13.756Z,67.96
2018-04-16T22:16:47.539Z,67.59
2018-04-16T22:19:21.305Z,68.01
2018-04-16T22:21:54.991Z,67.90
2018-04-16T22:24:29.015Z,67.73
2018-04-16T22:27:02.717Z,67.72
2018-04-16T22:29:36.574Z,67.50
2018-04-16T22:34:50.480Z,67.83
2018-04-16T22:37:24.240Z,68.02
2018-04-16T22:39:57.877Z,67.80
2018-04-16T22:42:31.745Z,67.90
2018-04-16T22:45:05.405Z,68.37
2018-04-16T22:47:39.127Z,68.62
2018-04-16T22:50:12.876Z,68.03
2018-04-16T22:52:46.687Z,68.01
2018-04-16T22:55:20.745Z,68.43
2018-04-16T22:57:54.436Z,68.34
2018-04-16T23:00:28.127Z,68.33
2018-04-16T23:03:02.019Z,68.39
2018-04-16T23:05:35.817Z,69.18
2018-04-16T23:08:09.554Z,69.12
2018-04-16T23:10:43.169Z,69.79
2018-04-16T23:13:16.843Z,69.27
2018-04-16T23:15:50.683Z,68.52
2018-04-16T23:18:24.483Z,68.37
2018-04-16T23:20:58.271Z,68.28
2018-04-16T23:23:32.150Z,68.16
2018-04-16T23:26:05.752Z,68.08
2018-04-16T23:28:39.487Z,67.94
2018-04-16T23:31:13.199Z,68.04
2018-04-16T23:33:47.091Z,67.14
2018-04-16T23:36:20.803Z,67.64
2018-04-16T23:38:54.611Z,67.41
2018-04-16T23:41:28.184Z,67.98
2018-04-16T23:44:01.805Z,68.01
2018-04-16T23:46:35.516Z,68.13
2018-04-16T23:49:09.319Z,68.96
2018-04-16T23:51:43.127Z,69.46
2018-04-16T23:54:16.879Z,69.45
2018-04-16T23:56:50.560Z,69.55
2018-04-16T23:59:24.315Z,69.62
